Cockrell Hill, Texas
Current Conditions -  °F | °C
As of 6:53 AM on Saturday 25 Oct 2014 (Local Time) from KRBD Reporting Station
Clear Clear  
Wind Chill: 65°   Ceiling: Unl
Heat Index: 65°   Visibility: 10mi
Dew Point: 57°   Wind: 6mph
Humidity: 75%   Direction: 160°SSE
Pressure: 30.11"   Gusts: NA
Location:  32.7371°N, 96.9045°W
Report Text: KRBD 251153Z 16005KT 10SM CLR 18/14 A3011 RMK AO2 SLP190 T01830139 10211 20183 53005
Loading
Personal Weather Stations






























Interactive Weather Map
Tropical Storm Tracking
New forecast layout! Learn more

10-Day Weather Forecast

Advertisements
Track Severe Weather on mobile